Price, Texas
Current Conditions -  °F | °C
As of 5:55 PM on Wednesday 28 Jan 2015 (Local Time) from KRFI Reporting Station
Clear Clear  
Wind Chill: 21°   Ceiling: Unl
Heat Index: 21°   Visibility: 10mi
Dew Point:   Wind: 7mph
Humidity: 38%   Direction: 170°S
Pressure: 30.08"   Gusts: NA
Location:  32.13°N, 94.94°W
Report Text: KRFI 282355Z AUTO 17006KT 10SM CLR 21/06 A3008 RMK AO2 T02100060 10252 20210
Loading
Personal Weather Stations






























Interactive Weather Map New forecast layout! Learn more

10-Day Weather Forecast

Advertisements
Track Severe Weather on mobile